To NAV CANADA Home Page Login to a new session Search on AWWS site Disclaimer Vers la page française équivalente Tips FAQ What's new on the site To the Forecasts and Observations / NOTAM section To "File a Flight Plan" website Publications and other links Update of the User's profile FIC Telephone Numbers My Weather Data Folder Route Weather Data Regional Weather Data Local Weather Data To the Forecasts and Observations / NOTAM section
Request Generated 09/16/2021 at 15:55:00 UTC . Weather information available at that time is displayed.

METAR/TAF

MOOSE JAW/AIR VICE MARSHAL C.M. MCEWEN/SK    

METAR CYMJ 161500Z 26018G24KT 15SM FEW120 SCT250 11/M00 A2975 RMK AC1CI2 SLP084=
METAR CYMJ 161400Z 26009G15KT 15SM SCT120 BKN250 09/02 A2975 RMK AC3CI3 SLP082=
METAR CYMJ 161300Z 23009KT 15SM FEW120 SCT250 05/02 A2975 RMK AC2CI2 SLP083=

TAF CYMJ 161130Z 1612/1624 24008KT P6SM BKN120 OVC250
FM161300 26010KT P6SM SCT250
BECMG 1615/1617 28018G28KT
FM162200 28018G28KT P6SM BKN050
RMK NXT FCST BY 161800Z=
Your time UTC time
Weather data provided by Environment Canada and NAV CANADA